RYR2PY LMML-LIMC
Flight info
| Callsign | RYR2PY |
|---|---|
| Flight time | N/A |
| Altitude | 38000 |
| Route | GZO M622 SOPIR DCT MABOX DCT ADEXI DCT GIANO DCT TINTO DCT VELAD DCT ELB DCT UPDIN DCT SPEZI DCT IDONA DCT MEBUR |
| Aircraft | B738/M-SDE2E3FGHIRWXY/LB1 |
Departure
| Time | N/A |
|---|---|
| Airport | Malta International Airport (LMML) |
Arrival
| Time | 2026-05-03 20:55 |
|---|---|
| Airport | Milan Malpensa International Airport (LIMC) |
| Time | Latitude | Longitude | Altitude | Speed | Heading |
|---|---|---|---|---|---|
| 2026-05-03 20:15 | 42.54750 | 10.49633 | 38171 ft | 417 kts | 333° |
| 2026-05-03 20:15 | 42.60140 | 10.46693 | 38158 ft | 418 kts | 333° |
| 2026-05-03 20:16 | 42.65545 | 10.43739 | 38164 ft | 419 kts | 333° |
| 2026-05-03 20:16 | 42.70956 | 10.40777 | 38157 ft | 420 kts | 333° |
| 2026-05-03 20:17 | 42.76235 | 10.37441 | 38182 ft | 416 kts | 327° |
| 2026-05-03 20:17 | 42.81285 | 10.33569 | 38087 ft | 418 kts | 326° |
| 2026-05-03 20:17 | 42.83814 | 10.31608 | 37769 ft | 418 kts | 326° |
| 2026-05-03 20:18 | 42.86334 | 10.29669 | 37497 ft | 413 kts | 326° |
| 2026-05-03 20:18 | 42.88829 | 10.27765 | 37213 ft | 408 kts | 326° |
| 2026-05-03 20:18 | 42.91291 | 10.25894 | 36943 ft | 404 kts | 326° |
| 2026-05-03 20:18 | 42.93743 | 10.24034 | 36681 ft | 402 kts | 326° |
| 2026-05-03 20:19 | 42.96186 | 10.22181 | 36418 ft | 401 kts | 326° |
| 2026-05-03 20:19 | 42.98614 | 10.20339 | 36167 ft | 399 kts | 326° |
| 2026-05-03 20:19 | 43.01034 | 10.18501 | 35913 ft | 401 kts | 326° |
| 2026-05-03 20:19 | 43.03485 | 10.16636 | 35670 ft | 405 kts | 326° |
| 2026-05-03 20:20 | 43.05943 | 10.14766 | 35420 ft | 403 kts | 326° |
| 2026-05-03 20:20 | 43.08389 | 10.12906 | 35169 ft | 401 kts | 326° |
| 2026-05-03 20:20 | 43.10006 | 10.11675 | 35003 ft | 400 kts | 326° |
| 2026-05-03 20:20 | 43.12432 | 10.09825 | 34760 ft | 398 kts | 326° |
| 2026-05-03 20:21 | 43.14829 | 10.07998 | 34445 ft | 392 kts | 326° |
| 2026-05-03 20:21 | 43.17204 | 10.06185 | 34080 ft | 389 kts | 326° |
| 2026-05-03 20:21 | 43.19559 | 10.04384 | 33678 ft | 386 kts | 327° |
| 2026-05-03 20:21 | 43.21897 | 10.02595 | 33306 ft | 383 kts | 327° |
| 2026-05-03 20:22 | 43.24213 | 10.00821 | 32921 ft | 380 kts | 327° |
| 2026-05-03 20:22 | 43.26368 | 9.99169 | 32587 ft | 377 kts | 327° |
| 2026-05-03 20:22 | 43.28644 | 9.97422 | 32222 ft | 374 kts | 327° |
| 2026-05-03 20:22 | 43.30905 | 9.95685 | 31871 ft | 371 kts | 327° |
| 2026-05-03 20:23 | 43.33145 | 9.93963 | 31524 ft | 368 kts | 327° |
| 2026-05-03 20:23 | 43.35373 | 9.92249 | 31179 ft | 365 kts | 327° |
| 2026-05-03 20:23 | 43.37580 | 9.90551 | 30840 ft | 363 kts | 327° |
| 2026-05-03 20:23 | 43.39777 | 9.88859 | 30506 ft | 361 kts | 327° |
| 2026-05-03 20:24 | 43.41961 | 9.87177 | 30175 ft | 358 kts | 327° |
| 2026-05-03 20:24 | 43.44128 | 9.85506 | 29782 ft | 356 kts | 327° |
| 2026-05-03 20:24 | 43.46274 | 9.83850 | 29426 ft | 352 kts | 327° |
| 2026-05-03 20:24 | 43.48400 | 9.82208 | 29064 ft | 349 kts | 326° |
| 2026-05-03 20:25 | 43.50510 | 9.80576 | 28717 ft | 346 kts | 326° |
| 2026-05-03 20:25 | 43.52599 | 9.78959 | 28368 ft | 343 kts | 326° |
| 2026-05-03 20:25 | 43.54677 | 9.77350 | 28022 ft | 341 kts | 327° |
| 2026-05-03 20:25 | 43.56738 | 9.75751 | 27690 ft | 339 kts | 327° |
| 2026-05-03 20:26 | 43.58788 | 9.74160 | 27350 ft | 338 kts | 327° |
| 2026-05-03 20:26 | 43.60841 | 9.72565 | 27025 ft | 341 kts | 327° |
| 2026-05-03 20:26 | 43.62938 | 9.70931 | 26718 ft | 351 kts | 327° |
| 2026-05-03 20:26 | 43.65079 | 9.69264 | 26345 ft | 354 kts | 327° |
| 2026-05-03 20:27 | 43.67223 | 9.67597 | 25987 ft | 352 kts | 327° |
| 2026-05-03 20:27 | 43.69352 | 9.65940 | 25636 ft | 350 kts | 327° |
| 2026-05-03 20:27 | 43.71461 | 9.64297 | 25285 ft | 347 kts | 327° |
| 2026-05-03 20:27 | 43.73561 | 9.62659 | 24947 ft | 345 kts | 327° |
| 2026-05-03 20:28 | 43.75643 | 9.61033 | 24613 ft | 343 kts | 327° |
| 2026-05-03 20:28 | 43.77717 | 9.59413 | 24278 ft | 341 kts | 327° |
| 2026-05-03 20:28 | 43.79771 | 9.57807 | 23995 ft | 337 kts | 327° |
| 2026-05-03 20:28 | 43.81806 | 9.56215 | 23669 ft | 336 kts | 327° |
| 2026-05-03 20:29 | 43.83835 | 9.54626 | 23284 ft | 334 kts | 327° |
| 2026-05-03 20:29 | 43.85851 | 9.53046 | 22933 ft | 331 kts | 327° |
| 2026-05-03 20:29 | 43.87849 | 9.51479 | 22585 ft | 329 kts | 327° |
| 2026-05-03 20:29 | 43.89834 | 9.49920 | 22257 ft | 326 kts | 327° |
| 2026-05-03 20:30 | 43.91799 | 9.48377 | 21926 ft | 324 kts | 327° |
| 2026-05-03 20:30 | 43.93755 | 9.46839 | 21600 ft | 322 kts | 327° |
| 2026-05-03 20:30 | 43.95691 | 9.45316 | 21280 ft | 320 kts | 327° |
| 2026-05-03 20:30 | 43.97625 | 9.43803 | 20956 ft | 318 kts | 329° |
| 2026-05-03 20:31 | 43.99676 | 9.42640 | 20636 ft | 320 kts | 341° |
| 2026-05-03 20:31 | 44.01823 | 9.41896 | 20336 ft | 319 kts | 343° |
| 2026-05-03 20:31 | 44.03977 | 9.41203 | 20032 ft | 317 kts | 343° |
| 2026-05-03 20:31 | 44.06126 | 9.40520 | 19719 ft | 316 kts | 343° |
| 2026-05-03 20:32 | 44.08264 | 9.39835 | 19410 ft | 315 kts | 343° |
| 2026-05-03 20:32 | 44.10368 | 9.39155 | 19102 ft | 314 kts | 343° |
| 2026-05-03 20:32 | 44.12516 | 9.38454 | 18790 ft | 313 kts | 343° |
| 2026-05-03 20:32 | 44.14606 | 9.37768 | 18487 ft | 312 kts | 343° |
| 2026-05-03 20:33 | 44.16745 | 9.37063 | 18136 ft | 312 kts | 343° |
| 2026-05-03 20:33 | 44.18827 | 9.36374 | 17802 ft | 311 kts | 343° |
| 2026-05-03 20:33 | 44.20922 | 9.35680 | 17482 ft | 309 kts | 343° |
| 2026-05-03 20:33 | 44.23011 | 9.34987 | 17170 ft | 307 kts | 343° |
| 2026-05-03 20:34 | 44.25083 | 9.34298 | 16868 ft | 306 kts | 343° |
| 2026-05-03 20:34 | 44.27125 | 9.33620 | 16867 ft | 297 kts | 343° |
| 2026-05-03 20:34 | 44.29136 | 9.32951 | 16849 ft | 297 kts | 343° |
| 2026-05-03 20:34 | 44.31188 | 9.32264 | 16841 ft | 311 kts | 343° |
| 2026-05-03 20:35 | 44.33336 | 9.31543 | 16878 ft | 322 kts | 343° |
| 2026-05-03 20:35 | 44.35533 | 9.30808 | 16881 ft | 326 kts | 343° |
| 2026-05-03 20:35 | 44.37733 | 9.30074 | 16861 ft | 323 kts | 343° |
| 2026-05-03 20:35 | 44.39914 | 9.29348 | 16857 ft | 321 kts | 344° |
| 2026-05-03 20:36 | 44.42071 | 9.28629 | 16887 ft | 318 kts | 343° |
| 2026-05-03 20:36 | 44.44219 | 9.27910 | 16865 ft | 318 kts | 343° |
| 2026-05-03 20:36 | 44.46366 | 9.27191 | 16872 ft | 317 kts | 343° |
| 2026-05-03 20:36 | 44.48513 | 9.26470 | 16870 ft | 317 kts | 343° |
| 2026-05-03 20:37 | 44.50656 | 9.25750 | 16883 ft | 318 kts | 343° |
| 2026-05-03 20:37 | 44.52811 | 9.25026 | 16879 ft | 319 kts | 343° |
| 2026-05-03 20:37 | 44.54971 | 9.24301 | 16855 ft | 319 kts | 343° |
| 2026-05-03 20:37 | 44.57147 | 9.23567 | 16628 ft | 324 kts | 343° |
| 2026-05-03 20:38 | 44.59346 | 9.22826 | 16411 ft | 324 kts | 343° |
| 2026-05-03 20:38 | 44.61520 | 9.22094 | 16188 ft | 319 kts | 344° |
| 2026-05-03 20:38 | 44.63672 | 9.21370 | 15774 ft | 319 kts | 343° |
| 2026-05-03 20:38 | 44.65838 | 9.20637 | 15413 ft | 319 kts | 343° |
| 2026-05-03 20:39 | 44.67994 | 9.19910 | 15086 ft | 319 kts | 344° |
| 2026-05-03 20:39 | 44.70147 | 9.19183 | 14762 ft | 318 kts | 344° |
| 2026-05-03 20:39 | 44.72279 | 9.18461 | 14573 ft | 313 kts | 344° |
| 2026-05-03 20:39 | 44.74386 | 9.17749 | 14309 ft | 311 kts | 343° |
| 2026-05-03 20:40 | 44.76434 | 9.16844 | 13977 ft | 307 kts | 327° |
| 2026-05-03 20:40 | 44.78197 | 9.15177 | 13646 ft | 304 kts | 321° |
| 2026-05-03 20:40 | 44.79900 | 9.13433 | 13384 ft | 301 kts | 320° |
| 2026-05-03 20:40 | 44.81601 | 9.11692 | 13017 ft | 302 kts | 321° |
| 2026-05-03 20:41 | 44.83299 | 9.09962 | 12718 ft | 300 kts | 321° |
| 2026-05-03 20:41 | 44.84987 | 9.08254 | 12506 ft | 295 kts | 321° |
| 2026-05-03 20:41 | 44.86648 | 9.06579 | 12201 ft | 294 kts | 321° |
| 2026-05-03 20:41 | 44.88319 | 9.04897 | 11838 ft | 295 kts | 321° |
| 2026-05-03 20:42 | 44.89990 | 9.03216 | 11552 ft | 294 kts | 321° |
| 2026-05-03 20:42 | 44.91646 | 9.01552 | 11242 ft | 291 kts | 321° |
| 2026-05-03 20:42 | 44.93246 | 8.99945 | 10848 ft | 290 kts | 322° |
| 2026-05-03 20:42 | 44.94835 | 8.98346 | 10461 ft | 289 kts | 322° |
| 2026-05-03 20:43 | 44.96475 | 8.96695 | 10014 ft | 291 kts | 322° |
| 2026-05-03 20:43 | 44.98138 | 8.95021 | 9491 ft | 295 kts | 322° |
| 2026-05-03 20:43 | 44.99808 | 8.93338 | 9022 ft | 294 kts | 322° |
| 2026-05-03 20:43 | 45.01459 | 8.91676 | 8555 ft | 291 kts | 322° |
| 2026-05-03 20:44 | 45.03096 | 8.90025 | 8096 ft | 287 kts | 323° |
| 2026-05-03 20:44 | 45.04823 | 8.88692 | 7772 ft | 280 kts | 345° |
| 2026-05-03 20:44 | 45.06694 | 8.88176 | 7453 ft | 273 kts | 349° |
| 2026-05-03 20:44 | 45.08560 | 8.87696 | 7031 ft | 271 kts | 349° |
| 2026-05-03 20:45 | 45.10406 | 8.87209 | 6667 ft | 268 kts | 349° |
| 2026-05-03 20:45 | 45.12224 | 8.86722 | 6286 ft | 264 kts | 349° |
| 2026-05-03 20:45 | 45.14018 | 8.86239 | 5942 ft | 259 kts | 349° |
| 2026-05-03 20:45 | 45.15775 | 8.85763 | 5633 ft | 254 kts | 349° |
| 2026-05-03 20:46 | 45.17459 | 8.85306 | 5527 ft | 240 kts | 349° |
| 2026-05-03 20:46 | 45.19088 | 8.84863 | 5226 ft | 236 kts | 349° |
| 2026-05-03 20:46 | 45.20699 | 8.84426 | 4872 ft | 236 kts | 349° |
| 2026-05-03 20:46 | 45.22308 | 8.83988 | 4499 ft | 235 kts | 349° |
| 2026-05-03 20:47 | 45.23884 | 8.83559 | 4423 ft | 228 kts | 349° |
| 2026-05-03 20:47 | 45.25444 | 8.83134 | 4331 ft | 230 kts | 349° |
| 2026-05-03 20:47 | 45.27029 | 8.82702 | 4294 ft | 234 kts | 349° |
| 2026-05-03 20:47 | 45.28626 | 8.82266 | 4232 ft | 233 kts | 349° |
| 2026-05-03 20:48 | 45.30208 | 8.81836 | 4168 ft | 230 kts | 349° |
| 2026-05-03 20:48 | 45.31774 | 8.81410 | 4125 ft | 230 kts | 349° |
| 2026-05-03 20:48 | 45.33354 | 8.80980 | 4075 ft | 231 kts | 349° |
| 2026-05-03 20:48 | 45.34929 | 8.80551 | 4036 ft | 227 kts | 349° |
| 2026-05-03 20:49 | 45.36441 | 8.80139 | 3993 ft | 216 kts | 349° |
| 2026-05-03 20:49 | 45.37899 | 8.79785 | 3863 ft | 209 kts | 352° |
| 2026-05-03 20:49 | 45.39332 | 8.79528 | 3761 ft | 207 kts | 355° |
| 2026-05-03 20:49 | 45.40768 | 8.79310 | 3667 ft | 208 kts | 352° |
| 2026-05-03 20:50 | 45.42198 | 8.78991 | 3570 ft | 207 kts | 349° |
| 2026-05-03 20:50 | 45.43608 | 8.78625 | 3510 ft | 205 kts | 349° |
| 2026-05-03 20:50 | 45.44965 | 8.78259 | 3386 ft | 198 kts | 349° |
| 2026-05-03 20:50 | 45.46301 | 8.77895 | 3266 ft | 194 kts | 349° |
| 2026-05-03 20:51 | 45.47630 | 8.77532 | 3173 ft | 196 kts | 348° |
| 2026-05-03 20:51 | 45.48987 | 8.77163 | 3068 ft | 200 kts | 348° |
| 2026-05-03 20:51 | 45.50335 | 8.76796 | 2945 ft | 194 kts | 348° |
| 2026-05-03 20:51 | 45.51638 | 8.76442 | 2706 ft | 187 kts | 348° |
| 2026-05-03 20:52 | 45.52892 | 8.76101 | 2467 ft | 180 kts | 348° |
| 2026-05-03 20:52 | 45.54108 | 8.75769 | 2234 ft | 178 kts | 347° |
| 2026-05-03 20:52 | 45.55286 | 8.75449 | 2019 ft | 167 kts | 347° |
| 2026-05-03 20:52 | 45.56398 | 8.75147 | 1793 ft | 160 kts | 347° |
| 2026-05-03 20:53 | 45.57474 | 8.74859 | 1554 ft | 154 kts | 347° |
| 2026-05-03 20:53 | 45.58513 | 8.74573 | 1380 ft | 153 kts | 347° |
| 2026-05-03 20:53 | 45.59575 | 8.74287 | 1171 ft | 159 kts | 348° |
| 2026-05-03 20:53 | 45.60671 | 8.73990 | 962 ft | 162 kts | 348° |
| 2026-05-03 20:54 | 45.61753 | 8.73695 | 736 ft | 157 kts | 347° |
| 2026-05-03 20:54 | 45.63420 | 8.73238 | 738 ft | 69 kts | 348° |
| 2026-05-03 20:54 | 45.63772 | 8.72997 | 748 ft | 50 kts | 310° |
| 2026-05-03 20:55 | 45.63899 | 8.72741 | 747 ft | 24 kts | 304° |
| 2026-05-03 20:55 | 45.63955 | 8.72538 | 752 ft | 22 kts | 264° |
| 2026-05-03 20:55 | 45.63928 | 8.72324 | 753 ft | 22 kts | 259° |
| 2026-05-03 20:55 | 45.63915 | 8.72113 | 753 ft | 21 kts | 268° |
| 2026-05-03 20:56 | 45.63893 | 8.71911 | 753 ft | 20 kts | 253° |
| 2026-05-03 20:56 | 45.63787 | 8.71830 | 750 ft | 19 kts | 169° |
| 2026-05-03 20:56 | 45.63659 | 8.71864 | 746 ft | 19 kts | 169° |
| 2026-05-03 20:56 | 45.63535 | 8.71899 | 746 ft | 18 kts | 169° |
| 2026-05-03 20:57 | 45.63413 | 8.71934 | 741 ft | 18 kts | 167° |
| 2026-05-03 20:57 | 45.63306 | 8.71908 | 741 ft | 16 kts | 235° |
| 2026-05-03 20:57 | 45.63221 | 8.71875 | 739 ft | 13 kts | 168° |
| 2026-05-03 20:57 | 45.63136 | 8.71900 | 738 ft | 13 kts | 169° |
| 2026-05-03 20:58 | 45.63049 | 8.71925 | 736 ft | 13 kts | 169° |
| 2026-05-03 20:58 | 45.62983 | 8.71898 | 734 ft | 10 kts | 244° |
| 2026-05-03 20:58 | 45.62967 | 8.71801 | 734 ft | 10 kts | 261° |
| 2026-05-03 20:58 | 45.62955 | 8.71705 | 734 ft | 10 kts | 259° |
| 2026-05-03 20:59 | 45.62941 | 8.71602 | 733 ft | 10 kts | 259° |
| 2026-05-03 20:59 | 45.62918 | 8.71576 | 734 ft | 4 kts | 185° |
| 2026-05-03 20:59 | 45.62885 | 8.71582 | 733 ft | 5 kts | 169° |
| 2026-05-03 20:59 | 45.62871 | 8.71585 | 733 ft | 0 kts | 169° |